createdAt,value
2023-01-07T00:02:07.448Z,2.90
2023-01-07T00:05:10.131Z,2.10
2023-01-07T00:08:12.472Z,2.70
2023-01-07T00:11:20.367Z,2.17
2023-01-07T00:14:22.321Z,2.40
2023-01-07T00:17:24.646Z,2.00
2023-01-07T00:20:26.582Z,2.03
2023-01-07T00:23:29.940Z,1.60
2023-01-07T00:26:34.086Z,1.50
2023-01-07T00:29:36.405Z,1.40
2023-01-07T00:32:56.887Z,1.40
2023-01-07T00:36:03.155Z,1.30
2023-01-07T00:39:14.627Z,1.33
2023-01-07T00:42:35.398Z,1.83
2023-01-07T00:45:37.697Z,0.63
2023-01-07T00:48:39.640Z,0.90
2023-01-07T00:51:41.601Z,0.80
2023-01-07T00:54:43.585Z,1.00
2023-01-07T00:57:46.102Z,1.00
2023-01-07T01:00:48.398Z,0.93
2023-01-07T01:03:50.317Z,0.80
2023-01-07T01:06:52.296Z,0.70
2023-01-07T01:09:54.260Z,0.90
2023-01-07T01:12:56.187Z,0.93
2023-01-07T01:15:58.234Z,1.13
2023-01-07T01:19:00.541Z,0.90
2023-01-07T01:22:02.609Z,1.20
2023-01-07T01:25:04.857Z,1.03
2023-01-07T01:28:07.689Z,1.07
2023-01-07T01:31:10.388Z,0.93
2023-01-07T01:34:12.308Z,0.97
2023-01-07T01:37:14.312Z,0.80
2023-01-07T01:40:16.224Z,0.90
2023-01-07T01:43:30.906Z,1.00
2023-01-07T01:46:38.990Z,1.30
2023-01-07T01:49:46.192Z,0.90
2023-01-07T01:52:57.018Z,1.40
2023-01-07T01:56:11.582Z,1.20
2023-01-07T01:59:18.368Z,1.00
2023-01-07T02:02:26.139Z,1.30
2023-01-07T02:05:33.594Z,1.20
2023-01-07T02:08:35.532Z,1.07
2023-01-07T02:11:41.683Z,1.23
2023-01-07T02:15:13.573Z,1.30
2023-01-07T02:18:18.413Z,1.60
2023-01-07T02:21:42.899Z,1.63
2023-01-07T02:25:22.791Z,1.53
2023-01-07T02:28:47.669Z,1.87
2023-01-07T02:32:13.923Z,1.37
2023-01-07T02:35:34.564Z,1.40
2023-01-07T02:39:01.349Z,1.80
2023-01-07T02:42:18.490Z,1.50
2023-01-07T02:45:55.104Z,1.47
2023-01-07T02:49:09.555Z,1.10
2023-01-07T02:52:26.125Z,1.37
2023-01-07T02:55:40.251Z,1.50
2023-01-07T02:59:00.955Z,1.43
2023-01-07T03:02:14.307Z,1.53
2023-01-07T03:05:40.411Z,1.30
2023-01-07T03:08:59.030Z,1.47
2023-01-07T03:12:33.791Z,1.07
2023-01-07T03:16:01.642Z,1.67
2023-01-07T03:19:11.197Z,1.60
2023-01-07T03:22:15.260Z,1.60
2023-01-07T03:25:18.054Z,1.50
2023-01-07T03:28:25.633Z,1.20
2023-01-07T03:31:28.931Z,1.60
2023-01-07T03:34:33.172Z,1.50
2023-01-07T03:37:35.375Z,1.33
2023-01-07T03:40:37.684Z,1.60
2023-01-07T03:43:39.619Z,1.23
2023-01-07T03:46:41.562Z,1.10
2023-01-07T03:49:43.488Z,1.63
2023-01-07T03:52:46.153Z,2.40
2023-01-07T03:55:48.045Z,2.30
2023-01-07T03:58:50.038Z,1.70
2023-01-07T04:01:52.142Z,1.63
2023-01-07T04:04:54.283Z,1.80
2023-01-07T04:07:56.155Z,1.53
2023-01-07T04:10:58.118Z,1.90
2023-01-07T04:14:01.008Z,2.00
2023-01-07T04:17:02.905Z,1.70
2023-01-07T04:20:08.088Z,1.90
2023-01-07T04:23:10.761Z,2.10
2023-01-07T04:26:12.666Z,1.63
2023-01-07T04:29:14.670Z,2.10
2023-01-07T04:32:16.546Z,1.90
2023-01-07T04:35:18.432Z,1.70
2023-01-07T04:38:20.281Z,2.67
2023-01-07T04:41:22.604Z,2.47
2023-01-07T04:44:24.480Z,2.30
2023-01-07T04:47:26.869Z,2.43
2023-01-07T04:50:28.981Z,2.40
2023-01-07T04:53:30.922Z,2.33
2023-01-07T04:56:32.919Z,2.50
2023-01-07T04:59:34.867Z,2.97
2023-01-07T05:02:36.994Z,2.70
2023-01-07T05:05:39.523Z,3.00
2023-01-07T05:08:41.416Z,2.70
2023-01-07T05:11:43.345Z,2.80
2023-01-07T05:14:45.244Z,2.43
2023-01-07T05:17:47.159Z,2.40
2023-01-07T05:20:49.086Z,2.50
2023-01-07T05:23:52.337Z,2.47
2023-01-07T05:26:54.150Z,2.47
2023-01-07T05:29:56.010Z,2.50
2023-01-07T05:32:57.985Z,2.67
2023-01-07T05:36:00.377Z,2.57
2023-01-07T05:39:02.763Z,2.50
2023-01-07T05:42:04.833Z,2.80
2023-01-07T05:45:07.694Z,2.57
2023-01-07T05:48:09.679Z,2.80
2023-01-07T05:51:11.616Z,2.70
2023-01-07T05:54:13.511Z,2.90
2023-01-07T05:57:15.403Z,2.60
2023-01-07T06:00:17.439Z,2.67
2023-01-07T06:03:19.949Z,2.77
2023-01-07T06:06:21.959Z,3.00
2023-01-07T06:09:23.871Z,2.63
2023-01-07T06:12:26.631Z,2.80
2023-01-07T06:15:28.827Z,2.73
2023-01-07T06:18:31.412Z,2.93
2023-01-07T06:21:33.394Z,2.93
2023-01-07T06:24:35.385Z,3.33
2023-01-07T06:27:37.268Z,2.87
2023-01-07T06:30:39.284Z,3.20
2023-01-07T06:33:42.084Z,2.97
2023-01-07T06:36:44.719Z,3.07
2023-01-07T06:39:46.567Z,3.00
2023-01-07T06:42:48.542Z,3.23
2023-01-07T06:45:50.424Z,3.40
2023-01-07T06:48:52.609Z,3.50
2023-01-07T06:51:54.486Z,3.53
2023-01-07T06:54:56.421Z,3.40
2023-01-07T06:57:58.402Z,3.00
2023-01-07T07:01:07.569Z,3.80
2023-01-07T07:04:09.638Z,4.00
2023-01-07T07:07:12.112Z,3.83
2023-01-07T07:10:14.490Z,3.43
2023-01-07T07:13:16.606Z,2.70
2023-01-07T07:16:18.508Z,3.03
2023-01-07T07:19:21.040Z,3.10
2023-01-07T07:22:22.932Z,3.03
2023-01-07T07:29:47.209Z,3.13
2023-01-07T07:32:49.254Z,2.70
2023-01-07T07:35:51.508Z,3.67
2023-01-07T07:38:53.399Z,2.87
2023-01-07T07:41:55.499Z,2.87
2023-01-07T07:44:57.462Z,3.00
2023-01-07T07:47:59.818Z,3.03
2023-01-07T07:51:01.776Z,2.47
2023-01-07T07:54:04.622Z,2.60
2023-01-07T07:57:06.832Z,2.50
2023-01-07T08:00:10.389Z,3.00
2023-01-07T08:03:12.342Z,2.60
2023-01-07T08:06:14.370Z,2.50
2023-01-07T08:09:16.253Z,2.73
2023-01-07T08:12:18.549Z,2.53
2023-01-07T08:15:20.536Z,2.80
2023-01-07T08:18:23.998Z,2.27
2023-01-07T08:21:25.939Z,2.40
2023-01-07T08:24:27.904Z,3.37
2023-01-07T08:27:30.055Z,2.67
2023-01-07T08:30:32.196Z,2.30
2023-01-07T08:33:39.913Z,2.40
2023-01-07T08:36:42.514Z,2.37
2023-01-07T08:39:44.447Z,2.70
2023-01-07T08:42:46.352Z,2.53
2023-01-07T08:45:52.139Z,2.40
2023-01-07T08:48:55.063Z,3.03
2023-01-07T08:51:56.940Z,2.63
2023-01-07T08:54:59.542Z,2.63
2023-01-07T08:58:01.456Z,2.47
2023-01-07T09:01:06.598Z,3.00
2023-01-07T09:04:09.974Z,2.67
2023-01-07T09:07:12.676Z,3.30
2023-01-07T09:10:14.640Z,3.13
2023-01-07T09:13:16.891Z,3.20
2023-01-07T09:16:19.607Z,2.47
2023-01-07T09:19:22.511Z,2.70
2023-01-07T09:22:25.162Z,2.20
2023-01-07T09:25:27.128Z,1.90
2023-01-07T09:28:29.180Z,2.20
2023-01-07T09:31:31.268Z,2.10
2023-01-07T09:34:33.158Z,2.10
2023-01-07T09:37:35.188Z,2.17
2023-01-07T09:40:40.255Z,2.17
2023-01-07T09:44:00.947Z,1.80
2023-01-07T09:47:05.641Z,1.77
2023-01-07T09:50:16.356Z,0.97
2023-01-07T09:53:25.811Z,1.60
2023-01-07T09:56:36.233Z,1.63
2023-01-07T09:59:38.121Z,1.60
2023-01-07T10:02:40.607Z,1.77
2023-01-07T10:05:49.913Z,1.90
2023-01-07T10:09:02.921Z,1.60
2023-01-07T10:12:13.739Z,1.40
2023-01-07T10:15:50.667Z,2.00
2023-01-07T10:19:11.448Z,2.07
2023-01-07T10:22:24.504Z,1.90
2023-01-07T10:25:33.605Z,1.57
2023-01-07T10:28:44.210Z,1.00
2023-01-07T10:31:47.254Z,0.90
2023-01-07T10:34:52.516Z,1.10
2023-01-07T10:37:56.804Z,0.90
2023-01-07T10:41:04.279Z,0.70
2023-01-07T10:44:09.250Z,2.10
2023-01-07T10:47:41.798Z,1.10
2023-01-07T10:50:55.663Z,0.97
2023-01-07T10:54:14.483Z,0.80
2023-01-07T10:57:23.705Z,0.90
2023-01-07T11:00:26.853Z,1.00
2023-01-07T11:03:29.217Z,1.00
2023-01-07T11:06:34.076Z,1.40
2023-01-07T11:09:39.073Z,1.60
2023-01-07T11:12:46.029Z,1.30
2023-01-07T11:15:56.338Z,1.20
2023-01-07T11:19:09.450Z,1.20
2023-01-07T11:22:26.551Z,1.00
2023-01-07T11:25:29.811Z,0.90
2023-01-07T11:28:32.091Z,1.10
2023-01-07T11:31:47.609Z,1.17
2023-01-07T11:35:28.417Z,1.13
2023-01-07T11:38:36.827Z,1.20
2023-01-07T11:41:51.955Z,0.87
2023-01-07T11:45:11.998Z,0.93
2023-01-07T11:48:30.126Z,0.90
2023-01-07T11:51:40.224Z,0.80
2023-01-07T11:54:42.100Z,0.93
2023-01-07T11:58:27.725Z,1.00
2023-01-07T12:01:36.670Z,0.90
2023-01-07T12:04:46.247Z,0.80
2023-01-07T12:07:49.396Z,1.80
2023-01-07T12:10:56.516Z,1.10
2023-01-07T12:14:06.763Z,0.70
2023-01-07T12:17:27.484Z,0.93
2023-01-07T12:20:47.618Z,0.80
2023-01-07T12:24:11.370Z,0.83
2023-01-07T12:27:32.135Z,0.77
2023-01-07T12:30:44.083Z,0.93
2023-01-07T12:34:09.987Z,1.37
2023-01-07T12:37:32.843Z,1.80
2023-01-07T12:40:57.098Z,1.60
2023-01-07T12:44:21.046Z,1.00
2023-01-07T12:47:35.382Z,0.70
2023-01-07T12:50:45.260Z,1.00
2023-01-07T12:54:17.225Z,1.10
2023-01-07T12:57:27.616Z,0.80
2023-01-07T13:00:43.521Z,1.20
2023-01-07T13:04:06.246Z,0.90
2023-01-07T13:07:35.592Z,0.90
2023-01-07T13:10:43.095Z,0.97
2023-01-07T13:13:49.387Z,0.90
2023-01-07T13:16:52.079Z,0.70
2023-01-07T13:19:54.869Z,0.60
2023-01-07T13:22:59.915Z,0.90
2023-01-07T13:26:11.021Z,0.80
2023-01-07T13:29:21.561Z,1.00
2023-01-07T13:32:45.826Z,0.60
2023-01-07T13:36:03.589Z,0.80
2023-01-07T13:39:24.065Z,0.70
2023-01-07T13:42:49.352Z,0.90
2023-01-07T13:46:04.768Z,0.60
2023-01-07T13:49:24.934Z,0.50
2023-01-07T13:52:28.724Z,0.67
2023-01-07T13:55:38.346Z,0.60
2023-01-07T13:58:50.267Z,0.80
2023-01-07T14:02:16.123Z,0.70
2023-01-07T14:05:18.072Z,0.60
2023-01-07T14:08:28.890Z,0.80
2023-01-07T14:11:30.753Z,0.70
2023-01-07T14:15:10.447Z,0.80
2023-01-07T14:18:28.225Z,0.70
2023-01-07T14:21:39.586Z,0.70
2023-01-07T14:24:53.464Z,0.60
2023-01-07T14:27:55.381Z,1.00
2023-01-07T14:30:58.535Z,0.80
2023-01-07T14:34:08.028Z,0.70
2023-01-07T14:37:16.781Z,0.57
2023-01-07T14:40:27.645Z,0.60
2023-01-07T14:43:43.424Z,0.70
2023-01-07T14:46:54.772Z,1.10
2023-01-07T14:50:16.943Z,0.90
2023-01-07T14:53:40.070Z,1.23
2023-01-07T14:56:58.053Z,1.67
2023-01-07T15:00:05.560Z,7.97
2023-01-07T15:03:58.717Z,3.60
2023-01-07T15:07:03.103Z,1.10
2023-01-07T15:10:45.409Z,0.90
2023-01-07T15:14:26.516Z,3.20
2023-01-07T15:17:29.208Z,1.70
2023-01-07T15:20:59.439Z,1.90
2023-01-07T15:24:22.963Z,1.70
2023-01-07T15:27:38.047Z,2.60
2023-01-07T15:30:57.284Z,2.40
2023-01-07T15:34:09.497Z,2.03
2023-01-07T15:37:13.965Z,1.40
2023-01-07T15:40:21.362Z,1.50
2023-01-07T15:43:26.505Z,0.77
2023-01-07T15:46:32.702Z,0.80
2023-01-07T15:49:36.133Z,1.03
2023-01-07T15:52:38.298Z,1.10
2023-01-07T15:55:46.117Z,1.77
2023-01-07T15:58:50.080Z,1.47
2023-01-07T16:01:53.123Z,0.80
2023-01-07T16:04:59.919Z,0.90
2023-01-07T16:08:02.150Z,1.07
2023-01-07T16:11:11.785Z,1.30
2023-01-07T16:14:18.780Z,1.17
2023-01-07T16:17:21.435Z,1.00
2023-01-07T16:20:42.791Z,1.20
2023-01-07T16:23:47.588Z,10.13
2023-01-07T16:26:56.508Z,18.67
2023-01-07T16:30:00.963Z,7.33
2023-01-07T16:33:03.999Z,2.87
2023-01-07T16:36:09.565Z,2.03
2023-01-07T16:39:24.363Z,1.63
2023-01-07T16:42:27.657Z,0.97
2023-01-07T16:45:34.472Z,0.80
2023-01-07T16:48:36.457Z,0.63
2023-01-07T16:52:02.861Z,0.97
2023-01-07T16:55:39.783Z,1.80
2023-01-07T16:58:46.824Z,0.70
2023-01-07T17:01:49.439Z,0.90
2023-01-07T17:04:52.072Z,1.87
2023-01-07T17:07:56.669Z,1.50
2023-01-07T17:11:06.063Z,1.67
2023-01-07T17:14:38.953Z,1.57
2023-01-07T17:17:40.911Z,3.90
2023-01-07T17:20:43.210Z,4.37
2023-01-07T17:23:46.029Z,2.70
2023-01-07T17:26:48.365Z,3.40
2023-01-07T17:29:50.588Z,2.83
2023-01-07T17:32:53.758Z,2.77
2023-01-07T17:35:57.615Z,3.03
2023-01-07T17:38:59.543Z,2.33
2023-01-07T17:42:20.251Z,1.30
2023-01-07T17:45:22.155Z,1.47
2023-01-07T17:48:23.996Z,2.80
2023-01-07T17:51:27.275Z,3.53
2023-01-07T17:54:30.051Z,3.77
2023-01-07T17:57:33.024Z,4.73
2023-01-07T18:00:36.799Z,2.80
2023-01-07T18:03:39.400Z,2.30
2023-01-07T18:06:42.969Z,3.00
2023-01-07T18:09:45.421Z,3.40
2023-01-07T18:12:47.801Z,2.70
2023-01-07T18:15:49.971Z,2.90
2023-01-07T18:18:52.012Z,3.10
2023-01-07T18:21:56.032Z,2.17
2023-01-07T18:24:57.901Z,2.07
2023-01-07T18:27:59.898Z,2.17
2023-01-07T18:31:01.866Z,1.43
2023-01-07T18:34:03.809Z,2.10
2023-01-07T18:37:05.718Z,1.90
2023-01-07T18:40:09.109Z,1.90
2023-01-07T18:43:15.634Z,1.30
2023-01-07T18:46:18.316Z,1.33
2023-01-07T18:49:20.272Z,1.87
2023-01-07T18:52:22.293Z,1.40
2023-01-07T18:55:24.145Z,1.10
2023-01-07T18:58:27.024Z,0.87
2023-01-07T19:01:29.065Z,1.40
2023-01-07T19:04:31.154Z,1.27
2023-01-07T19:07:33.030Z,1.23
2023-01-07T19:10:35.038Z,1.00
2023-01-07T19:13:37.217Z,1.07
2023-01-07T19:16:39.717Z,0.90
2023-01-07T19:19:48.263Z,0.60
2023-01-07T19:22:50.883Z,0.90
2023-01-07T19:26:19.452Z,0.70
2023-01-07T19:29:21.685Z,0.87
2023-01-07T19:32:23.571Z,1.10
2023-01-07T19:35:27.364Z,1.10
2023-01-07T19:38:29.336Z,1.67
2023-01-07T19:41:33.139Z,1.20
2023-01-07T19:44:36.850Z,2.30
2023-01-07T19:47:39.795Z,1.97
2023-01-07T19:50:41.636Z,2.20
2023-01-07T19:53:43.622Z,1.13
2023-01-07T19:56:46.225Z,1.20
2023-01-07T19:59:48.183Z,1.50
2023-01-07T20:02:50.175Z,0.90
2023-01-07T20:05:52.184Z,0.97
2023-01-07T20:08:58.791Z,1.10
2023-01-07T20:12:02.650Z,1.30
2023-01-07T20:15:07.495Z,1.13
2023-01-07T20:18:09.638Z,3.53
2023-01-07T20:21:12.729Z,3.10
2023-01-07T20:24:14.881Z,2.03
2023-01-07T20:27:16.784Z,2.30
2023-01-07T20:30:18.811Z,1.90
2023-01-07T20:33:21.244Z,2.37
2023-01-07T20:36:29.340Z,1.67
2023-01-07T20:39:31.982Z,1.30
2023-01-07T20:42:34.128Z,1.40
2023-01-07T20:45:43.819Z,1.30
2023-01-07T20:48:46.918Z,0.87
2023-01-07T20:51:49.145Z,1.07
2023-01-07T20:54:51.390Z,1.10
2023-01-07T20:57:53.272Z,1.70
2023-01-07T21:00:55.400Z,2.60
2023-01-07T21:04:19.431Z,1.80
2023-01-07T21:07:23.286Z,1.60
2023-01-07T21:10:25.506Z,1.83
2023-01-07T21:13:28.120Z,1.57
2023-01-07T21:16:31.419Z,1.00
2023-01-07T21:19:33.584Z,1.20
2023-01-07T21:22:38.115Z,1.10
2023-01-07T21:25:40.640Z,1.47
2023-01-07T21:28:44.506Z,3.93
2023-01-07T21:31:46.948Z,4.77
2023-01-07T21:34:48.917Z,4.50
2023-01-07T21:37:54.587Z,1.60
2023-01-07T21:40:56.603Z,1.90
2023-01-07T21:43:58.626Z,1.20
2023-01-07T21:47:00.548Z,0.90
2023-01-07T21:50:03.355Z,0.90
2023-01-07T21:53:05.363Z,0.60
2023-01-07T21:56:10.323Z,0.97
2023-01-07T21:59:12.269Z,1.17
2023-01-07T22:02:14.411Z,1.30
2023-01-07T22:05:16.415Z,1.20
2023-01-07T22:08:18.756Z,2.07
2023-01-07T22:11:20.582Z,1.40
2023-01-07T22:14:25.088Z,1.20
2023-01-07T22:17:26.946Z,1.60
2023-01-07T22:20:28.941Z,1.10
2023-01-07T22:23:30.823Z,1.50
2023-01-07T22:26:32.699Z,0.90
2023-01-07T22:29:36.658Z,1.53
2023-01-07T22:32:38.918Z,0.60
2023-01-07T22:35:40.906Z,0.30
2023-01-07T22:38:42.895Z,0.40
2023-01-07T22:41:45.453Z,0.53
2023-01-07T22:44:53.621Z,0.60
2023-01-07T22:47:55.578Z,0.80
2023-01-07T22:51:02.036Z,0.57
2023-01-07T22:54:04.504Z,0.83
2023-01-07T22:57:08.724Z,0.63
2023-01-07T23:00:16.952Z,0.40
2023-01-07T23:03:19.755Z,0.80
2023-01-07T23:06:21.783Z,0.60
2023-01-07T23:09:24.209Z,0.63
2023-01-07T23:12:26.129Z,1.10
2023-01-07T23:15:28.206Z,1.00
2023-01-07T23:18:30.330Z,0.80
2023-01-07T23:21:33.544Z,1.10
2023-01-07T23:24:37.222Z,2.57
2023-01-07T23:27:39.845Z,1.03
2023-01-07T23:30:41.983Z,0.50
2023-01-07T23:33:43.953Z,0.90
2023-01-07T23:36:45.929Z,0.70
2023-01-07T23:39:48.265Z,3.27
2023-01-07T23:42:50.100Z,0.90
2023-01-07T23:45:52.353Z,0.90
2023-01-07T23:48:54.204Z,1.00
2023-01-07T23:51:56.587Z,0.60
2023-01-07T23:54:58.551Z,0.70
2023-01-07T23:58:00.559Z,0.80
